Terminal Aerodrome Forecast
Issued by NWS Jackson, MS

Home | Current Version | Previous Version | Text Only | Print | Product List | Glossary On
Versions: 1 2 3 4 5 6 7 8 9 10 11 12 13 14 15 16 17 18 19 20
000
FTUS44 KJAN 282321
TAFHBG
TAF
KHBG 282321Z 2900/2924 VRB04KT P6SM VCSH SCT050 BKN250
     FM290200 13002KT 6SM BR SCT250
     FM291000 00000KT 4SM BR OVC001
     FM291100 00000KT 1/2SM FG BKN001
     FM291300 12002KT 4SM BR BKN001
     FM291400 14005KT P6SM SCT020
     FM291700 16006KT P6SM VCTS SCT040CB=

USA.gov is the U.S. government's official web portal to all federal, state and local government web resources and services.